Time;durP1;ratioP1;P1;durP2;ratioP2;P2;SDS_P1;SDS_P2;PMS_P1;PMS_P2;Temp;Humidity;BMP_temperature;BMP_pressure;BME280_temperature;BME280_humidity;BME280_pressure;Samples;Min_cycle;Max_cycle;Signal;HPM_P1;HPM_P2
2021/12/09 00:01:42;;;;;;;25.80;15.77;;;;;;;;;;5086018;28;20032;-81
2021/12/09 00:04:14;;;;;;;25.52;15.80;;;;;;;;;;5099833;28;20166;-80
2021/12/09 00:06:41;;;;;;;27.10;17.08;;;;;;;;;;5103386;28;20016;-80
2021/12/09 00:09:09;;;;;;;28.27;16.55;;;;;;;;;;5094625;28;20550;-80
2021/12/09 00:11:43;;;;;;;28.27;16.67;;;;;;;;;;5101804;28;20046;-79
2021/12/09 00:14:10;;;;;;;24.83;15.00;;;;;;;;;;5090691;28;20062;-80
2021/12/09 00:16:36;;;;;;;26.50;15.50;;;;;;;;;;5093443;28;20099;-81
2021/12/09 00:19:02;;;;;;;31.98;17.63;;;;;;;;;;5095782;28;20517;-81
2021/12/09 00:21:28;;;;;;;29.75;17.77;;;;;;;;;;5081233;28;20028;-79
2021/12/09 00:23:54;;;;;;;27.60;15.38;;;;;;;;;;5095764;28;20027;-82
2021/12/09 00:26:20;;;;;;;28.65;17.25;;;;;;;;;;5102216;28;20024;-80
2021/12/09 00:28:46;;;;;;;30.17;17.42;;;;;;;;;;5092375;28;20055;-80
2021/12/09 00:31:14;;;;;;;29.60;18.58;;;;;;;;;;5084992;28;20052;-82
2021/12/09 00:33:44;;;;;;;31.92;19.40;;;;;;;;;;5083533;28;20530;-81
2021/12/09 00:36:10;;;;;;;32.33;19.10;;;;;;;;;;5092601;28;20076;-80
2021/12/09 00:38:39;;;;;;;32.28;17.48;;;;;;;;;;5083430;28;20025;-80
2021/12/09 00:41:07;;;;;;;33.25;17.63;;;;;;;;;;5085946;28;20039;-79
2021/12/09 00:43:33;;;;;;;33.47;19.13;;;;;;;;;;5092177;28;20151;-81
2021/12/09 00:46:00;;;;;;;34.53;19.05;;;;;;;;;;5097146;28;20041;-79
2021/12/09 00:48:27;;;;;;;38.03;20.20;;;;;;;;;;5093634;28;20077;-81
2021/12/09 00:50:53;;;;;;;37.13;21.38;;;;;;;;;;5092588;28;20042;-80
2021/12/09 00:53:20;;;;;;;38.47;22.20;;;;;;;;;;5101203;28;20028;-78
2021/12/09 00:55:46;;;;;;;40.63;23.33;;;;;;;;;;5087066;28;20526;-81
2021/12/09 00:58:12;;;;;;;40.72;24.15;;;;;;;;;;5085557;28;21110;-77
2021/12/09 01:00:38;;;;;;;41.15;22.67;;;;;;;;;;5082351;28;20155;-79
2021/12/09 01:03:04;;;;;;;46.38;25.20;;;;;;;;;;5097062;28;20028;-80
2021/12/09 01:05:30;;;;;;;41.55;23.38;;;;;;;;;;5101639;28;20034;-80
2021/12/09 01:07:57;;;;;;;42.47;24.08;;;;;;;;;;5100519;28;20181;-81
2021/12/09 01:10:23;;;;;;;42.40;23.58;;;;;;;;;;5084085;28;20029;-81
2021/12/09 01:12:49;;;;;;;42.45;23.23;;;;;;;;;;5083009;28;20033;-81
2021/12/09 01:15:16;;;;;;;35.17;21.42;;;;;;;;;;5091598;28;20474;-80
2021/12/09 01:17:43;;;;;;;42.17;24.33;;;;;;;;;;5096530;28;20062;-81
2021/12/09 01:20:10;;;;;;;45.38;23.58;;;;;;;;;;5095925;28;20028;-79
2021/12/09 01:22:41;;;;;;;44.00;23.85;;;;;;;;;;5100256;28;20175;-79
2021/12/09 01:25:08;;;;;;;46.38;25.60;;;;;;;;;;5086686;28;20008;-78
2021/12/09 01:27:37;;;;;;;54.53;28.88;;;;;;;;;;5081001;28;20025;-79
2021/12/09 01:30:09;;;;;;;46.92;27.55;;;;;;;;;;5099013;28;20020;-80
2021/12/09 01:32:35;;;;;;;47.42;26.70;;;;;;;;;;5101423;28;20028;-79
2021/12/09 01:35:01;;;;;;;46.20;24.52;;;;;;;;;;5102328;28;20055;-79
2021/12/09 01:37:27;;;;;;;50.60;27.00;;;;;;;;;;5101446;28;20035;-78
2021/12/09 01:39:53;;;;;;;49.30;28.40;;;;;;;;;;5084419;28;20044;-80
2021/12/09 01:42:20;;;;;;;48.63;26.08;;;;;;;;;;5100309;28;20161;-80
2021/12/09 01:44:46;;;;;;;49.42;27.30;;;;;;;;;;5096476;28;20024;-79
2021/12/09 01:47:12;;;;;;;50.42;28.00;;;;;;;;;;5081045;28;20099;-80
2021/12/09 01:49:38;;;;;;;48.85;27.70;;;;;;;;;;5082271;28;20032;-78
2021/12/09 01:52:05;;;;;;;50.90;26.27;;;;;;;;;;5079034;28;20028;-79
2021/12/09 01:54:31;;;;;;;50.13;26.45;;;;;;;;;;5086897;28;20539;-78
2021/12/09 01:56:57;;;;;;;46.83;25.40;;;;;;;;;;5103117;28;20024;-80
2021/12/09 01:59:23;;;;;;;45.53;26.33;;;;;;;;;;5088777;28;20033;-79
2021/12/09 02:01:49;;;;;;;50.17;27.50;;;;;;;;;;5083045;28;20032;-80
2021/12/09 02:04:15;;;;;;;58.03;29.02;;;;;;;;;;5080239;28;20021;-80
2021/12/09 02:06:42;;;;;;;53.10;28.98;;;;;;;;;;5081732;28;20031;-79
2021/12/09 02:09:09;;;;;;;57.17;30.50;;;;;;;;;;5084252;28;20351;-81
2021/12/09 02:11:35;;;;;;;64.75;32.00;;;;;;;;;;5093024;28;20087;-80
2021/12/09 02:14:02;;;;;;;58.63;30.92;;;;;;;;;;5094317;28;20035;-80
2021/12/09 02:16:28;;;;;;;60.80;31.58;;;;;;;;;;5100130;28;20350;-80
2021/12/09 02:18:54;;;;;;;59.58;31.35;;;;;;;;;;5092556;28;20028;-82
2021/12/09 02:21:23;;;;;;;57.25;29.05;;;;;;;;;;5083808;28;20033;-80
2021/12/09 02:23:50;;;;;;;60.58;30.30;;;;;;;;;;5082351;28;20067;-80
2021/12/09 02:26:18;;;;;;;50.28;28.05;;;;;;;;;;5086572;28;20029;-80
2021/12/09 02:28:45;;;;;;;62.00;32.55;;;;;;;;;;5087832;28;20130;-82
2021/12/09 02:31:11;;;;;;;60.03;33.63;;;;;;;;;;5098678;28;20016;-80
2021/12/09 02:33:37;;;;;;;70.80;33.40;;;;;;;;;;5098990;28;20020;-79
2021/12/09 02:36:04;;;;;;;58.88;32.28;;;;;;;;;;5092886;28;20437;-81
2021/12/09 02:38:30;;;;;;;67.90;35.38;;;;;;;;;;5077991;28;20025;-80
2021/12/09 02:40:56;;;;;;;70.00;33.83;;;;;;;;;;5093465;28;20035;-80
2021/12/09 02:43:29;;;;;;;71.28;34.25;;;;;;;;;;5077184;28;20144;-80
2021/12/09 02:45:57;;;;;;;75.00;37.42;;;;;;;;;;5077604;28;20122;-81
2021/12/09 02:48:24;;;;;;;67.45;34.30;;;;;;;;;;5086756;28;20027;-81
2021/12/09 02:50:51;;;;;;;73.85;35.85;;;;;;;;;;5099834;28;20027;-80
2021/12/09 02:53:17;;;;;;;73.50;37.08;;;;;;;;;;5083125;28;20032;-80
2021/12/09 02:55:44;;;;;;;76.30;37.55;;;;;;;;;;5095630;28;20028;-80
2021/12/09 02:58:10;;;;;;;80.97;37.13;;;;;;;;;;5098657;28;20048;-79
2021/12/09 03:00:50;;;;;;;90.88;41.33;;;;;;;;;;5098411;28;20373;-80
2021/12/09 03:03:16;;;;;;;83.22;38.42;;;;;;;;;;5098860;28;20032;-81
2021/12/09 03:05:42;;;;;;;78.80;39.28;;;;;;;;;;5094102;28;20042;-80
2021/12/09 03:08:09;;;;;;;92.53;40.88;;;;;;;;;;5090762;28;20024;-80
2021/12/09 03:10:35;;;;;;;91.70;40.83;;;;;;;;;;5080135;28;20024;-78
2021/12/09 03:13:05;;;;;;;94.95;42.05;;;;;;;;;;5083099;28;20029;-78
2021/12/09 03:15:34;;;;;;;86.95;41.90;;;;;;;;;;5079763;28;20063;-80
2021/12/09 03:18:00;;;;;;;104.75;42.83;;;;;;;;;;5081537;28;20036;-79
2021/12/09 03:20:27;;;;;;;96.43;41.17;;;;;;;;;;5084717;28;20028;-78
2021/12/09 03:22:53;;;;;;;102.97;44.75;;;;;;;;;;5091407;28;20066;-78
2021/12/09 03:25:20;;;;;;;97.60;40.88;;;;;;;;;;5092860;28;20032;-80
2021/12/09 03:27:46;;;;;;;106.20;45.85;;;;;;;;;;5078710;28;20024;-80
2021/12/09 03:30:13;;;;;;;94.32;42.95;;;;;;;;;;5077809;28;20039;-80
2021/12/09 03:32:39;;;;;;;99.10;43.85;;;;;;;;;;5095166;28;20144;-79
2021/12/09 03:35:06;;;;;;;108.47;44.22;;;;;;;;;;5077897;28;20483;-79
2021/12/09 03:37:33;;;;;;;103.10;45.20;;;;;;;;;;5075389;28;20089;-80
2021/12/09 03:39:59;;;;;;;104.05;43.35;;;;;;;;;;5088008;28;20497;-79
2021/12/09 03:42:26;;;;;;;103.18;44.38;;;;;;;;;;5084994;28;20505;-78
2021/12/09 03:44:53;;;;;;;90.95;43.60;;;;;;;;;;5082385;28;20017;-80
2021/12/09 03:47:23;;;;;;;105.20;44.58;;;;;;;;;;5089123;28;20028;-78
2021/12/09 03:49:50;;;;;;;112.68;47.80;;;;;;;;;;5086570;28;20027;-78
2021/12/09 03:52:16;;;;;;;99.32;43.20;;;;;;;;;;5094788;28;20036;-78
2021/12/09 03:54:43;;;;;;;100.50;42.67;;;;;;;;;;5077761;28;20036;-78
2021/12/09 03:57:10;;;;;;;99.00;43.95;;;;;;;;;;5087468;28;20497;-78
2021/12/09 03:59:36;;;;;;;102.45;43.25;;;;;;;;;;5085529;28;20074;-81
2021/12/09 04:02:02;;;;;;;95.82;45.25;;;;;;;;;;5087941;28;20039;-77
2021/12/09 04:04:29;;;;;;;94.28;42.17;;;;;;;;;;5080981;28;20024;-78
2021/12/09 04:06:55;;;;;;;105.53;44.42;;;;;;;;;;5084332;28;20027;-77
2021/12/09 04:09:22;;;;;;;102.30;42.90;;;;;;;;;;5102281;28;20020;-79
2021/12/09 04:11:49;;;;;;;106.38;42.45;;;;;;;;;;5092439;28;20023;-79
2021/12/09 04:14:16;;;;;;;102.57;42.30;;;;;;;;;;5089220;28;20032;-78
2021/12/09 04:16:42;;;;;;;106.22;47.38;;;;;;;;;;5083537;28;20093;-79
2021/12/09 04:19:09;;;;;;;117.70;45.60;;;;;;;;;;5083416;28;20031;-78
2021/12/09 04:21:37;;;;;;;109.57;45.90;;;;;;;;;;5085079;28;20035;-81
2021/12/09 04:24:07;;;;;;;106.30;45.42;;;;;;;;;;5083975;28;20025;-79
2021/12/09 04:26:45;;;;;;;105.20;44.10;;;;;;;;;;5082674;28;20040;-78
2021/12/09 04:29:11;;;;;;;95.85;40.95;;;;;;;;;;5096072;28;20039;-82
2021/12/09 04:31:38;;;;;;;115.07;46.72;;;;;;;;;;5105691;28;20489;-79
2021/12/09 04:34:04;;;;;;;101.00;44.40;;;;;;;;;;5095609;28;20035;-81
2021/12/09 04:36:30;;;;;;;91.43;41.00;;;;;;;;;;5086356;28;20121;-80
2021/12/09 04:38:56;;;;;;;98.90;40.90;;;;;;;;;;5076688;28;20081;-81
2021/12/09 04:41:22;;;;;;;105.63;40.65;;;;;;;;;;5088418;28;20544;-80
2021/12/09 04:43:49;;;;;;;99.28;40.78;;;;;;;;;;5077308;28;20054;-80
2021/12/09 04:46:16;;;;;;;99.00;39.25;;;;;;;;;;5074501;28;20462;-80
2021/12/09 04:48:42;;;;;;;99.90;41.38;;;;;;;;;;5086803;28;20108;-81
2021/12/09 04:51:09;;;;;;;94.38;38.42;;;;;;;;;;5093418;28;20020;-80
2021/12/09 04:53:35;;;;;;;96.53;38.45;;;;;;;;;;5085975;28;20028;-81
2021/12/09 04:56:01;;;;;;;96.82;42.10;;;;;;;;;;5107539;28;20036;-81
2021/12/09 04:58:28;;;;;;;89.40;38.15;;;;;;;;;;5096266;28;20621;-81
2021/12/09 05:00:56;;;;;;;94.10;39.67;;;;;;;;;;5094356;28;20036;-82
2021/12/09 05:03:22;;;;;;;95.35;41.08;;;;;;;;;;5096808;28;20031;-82
2021/12/09 05:05:53;;;;;;;94.53;41.53;;;;;;;;;;5094901;28;20039;-82
2021/12/09 05:08:20;;;;;;;96.05;38.33;;;;;;;;;;5094488;28;20024;-83
2021/12/09 05:10:59;;;;;;;90.53;38.70;;;;;;;;;;5084403;28;20070;-83
2021/12/09 05:13:26;;;;;;;94.13;37.58;;;;;;;;;;5075842;28;20036;-82
2021/12/09 05:15:53;;;;;;;82.57;35.63;;;;;;;;;;5085565;28;20059;-82
2021/12/09 05:18:19;;;;;;;85.45;35.88;;;;;;;;;;5094664;28;20084;-81
2021/12/09 05:20:46;;;;;;;79.72;34.08;;;;;;;;;;5083748;28;20031;-82
2021/12/09 05:23:12;;;;;;;84.18;36.63;;;;;;;;;;5084429;28;20043;-83
2021/12/09 05:25:38;;;;;;;78.60;34.25;;;;;;;;;;5093800;28;20024;-83
2021/12/09 05:28:05;;;;;;;72.05;32.45;;;;;;;;;;5092131;28;20485;-82
2021/12/09 05:32:08;;;;;;;81.60;34.97;;;;;;;;;;5075010;28;20037;-83
2021/12/09 05:33:27;;;;;;;70.45;31.45;;;;;;;;;;5092191;28;20032;-83
2021/12/09 05:35:53;;;;;;;77.22;32.95;;;;;;;;;;5089453;28;20030;-83
2021/12/09 05:38:20;;;;;;;64.63;30.02;;;;;;;;;;5094956;28;20036;-84
2021/12/09 05:40:47;;;;;;;73.53;33.65;;;;;;;;;;5092110;28;20035;-83
2021/12/09 05:43:13;;;;;;;80.47;33.80;;;;;;;;;;5094116;28;20024;-83
2021/12/09 05:45:39;;;;;;;68.07;31.15;;;;;;;;;;5094469;28;20116;-82
2021/12/09 05:48:07;;;;;;;71.82;33.70;;;;;;;;;;5091675;28;20035;-83
2021/12/09 05:50:33;;;;;;;74.30;32.08;;;;;;;;;;5081065;28;20374;-84
2021/12/09 05:52:59;;;;;;;73.13;31.95;;;;;;;;;;5075414;28;20036;-82
2021/12/09 05:55:25;;;;;;;75.93;32.20;;;;;;;;;;5086738;28;20032;-83
2021/12/09 05:57:51;;;;;;;65.60;31.67;;;;;;;;;;5097345;28;20028;-83
2021/12/09 06:00:17;;;;;;;76.18;32.60;;;;;;;;;;5089934;28;20052;-83
2021/12/09 06:02:43;;;;;;;80.63;34.53;;;;;;;;;;5086020;28;20024;-82
2021/12/09 06:05:10;;;;;;;73.82;30.95;;;;;;;;;;5088524;28;20024;-84
2021/12/09 06:07:37;;;;;;;76.30;33.47;;;;;;;;;;5084151;28;20096;-83
2021/12/09 06:10:05;;;;;;;83.00;33.03;;;;;;;;;;5087786;28;20028;-83
2021/12/09 06:12:31;;;;;;;79.28;32.70;;;;;;;;;;5085622;28;20389;-84
2021/12/09 06:14:57;;;;;;;69.07;32.03;;;;;;;;;;5079988;28;20032;-83
2021/12/09 06:17:24;;;;;;;74.93;32.90;;;;;;;;;;5087920;28;20089;-84
2021/12/09 06:19:50;;;;;;;79.30;33.88;;;;;;;;;;5088885;28;20082;-85
2021/12/09 06:22:16;;;;;;;78.22;32.67;;;;;;;;;;5095052;28;20035;-86
2021/12/09 06:24:44;;;;;;;78.38;32.78;;;;;;;;;;5084567;28;20115;-85
2021/12/09 06:27:10;;;;;;;75.57;34.30;;;;;;;;;;5080044;28;20119;-86
2021/12/09 06:29:37;;;;;;;77.00;33.40;;;;;;;;;;5085078;28;20111;-87
2021/12/09 06:32:03;;;;;;;75.15;32.97;;;;;;;;;;5079514;28;20052;-86
2021/12/09 06:34:30;;;;;;;83.38;34.50;;;;;;;;;;5087958;28;20028;-86
2021/12/09 06:36:56;;;;;;;76.32;31.10;;;;;;;;;;5074575;28;20119;-86
2021/12/09 06:39:22;;;;;;;72.93;32.83;;;;;;;;;;5070533;28;20033;-86
2021/12/09 06:41:48;;;;;;;59.67;28.90;;;;;;;;;;5080036;28;20027;-85
2021/12/09 06:44:14;;;;;;;75.70;32.72;;;;;;;;;;5076834;28;20126;-86
2021/12/09 06:46:40;;;;;;;73.18;30.77;;;;;;;;;;5078477;28;20031;-86
2021/12/09 06:49:07;;;;;;;68.90;30.75;;;;;;;;;;5084593;28;20555;-86
2021/12/09 06:51:33;;;;;;;86.60;32.67;;;;;;;;;;5076983;28;20041;-86
2021/12/09 06:53:59;;;;;;;74.63;32.38;;;;;;;;;;5078807;28;20086;-86
2021/12/09 06:56:27;;;;;;;78.20;33.78;;;;;;;;;;5077112;28;20178;-86
2021/12/09 06:58:53;;;;;;;68.90;30.50;;;;;;;;;;5091391;28;20478;-86
2021/12/09 07:01:19;;;;;;;77.43;33.63;;;;;;;;;;5079915;28;20028;-86
2021/12/09 07:03:45;;;;;;;73.72;32.97;;;;;;;;;;5078249;28;20039;-86
2021/12/09 07:06:12;;;;;;;77.28;32.42;;;;;;;;;;5088751;28;20138;-86
2021/12/09 07:08:44;;;;;;;76.18;32.50;;;;;;;;;;5086664;28;20457;-85
2021/12/09 07:11:10;;;;;;;75.03;30.90;;;;;;;;;;5088250;28;20035;-85
2021/12/09 07:13:36;;;;;;;84.07;32.90;;;;;;;;;;5092950;28;20096;-86
2021/12/09 07:16:03;;;;;;;75.10;31.30;;;;;;;;;;5093838;28;20021;-85
2021/12/09 07:18:30;;;;;;;74.68;31.90;;;;;;;;;;5088019;28;20551;-85
2021/12/09 07:20:57;;;;;;;84.63;33.05;;;;;;;;;;5101416;28;20046;-86
2021/12/09 07:23:23;;;;;;;66.00;31.33;;;;;;;;;;5115188;28;20020;-86
2021/12/09 07:25:49;;;;;;;77.55;31.98;;;;;;;;;;5086190;28;20028;-85
2021/12/09 07:28:15;;;;;;;67.10;29.75;;;;;;;;;;5081622;28;20170;-86
2021/12/09 07:30:41;;;;;;;70.55;32.85;;;;;;;;;;5078483;28;20021;-87
2021/12/09 07:33:07;;;;;;;71.78;31.70;;;;;;;;;;5075512;28;20566;-88
2021/12/09 07:35:33;;;;;;;76.90;31.45;;;;;;;;;;5083329;28;20055;-86
2021/12/09 07:38:01;;;;;;;68.57;30.65;;;;;;;;;;5082178;28;20036;-87
2021/12/09 07:40:28;;;;;;;64.82;29.05;;;;;;;;;;5072613;28;20031;-88
2021/12/09 07:42:54;;;;;;;73.93;31.27;;;;;;;;;;5077297;28;20032;-88
2021/12/09 07:45:20;;;;;;;59.40;27.80;;;;;;;;;;5075553;28;20123;-87
2021/12/09 07:47:47;;;;;;;65.32;28.85;;;;;;;;;;5084897;28;20023;-87
2021/12/09 07:50:15;;;;;;;70.78;31.92;;;;;;;;;;5090236;28;20031;-86
2021/12/09 07:52:42;;;;;;;72.28;29.38;;;;;;;;;;5087546;28;20058;-86
2021/12/09 07:55:09;;;;;;;60.22;28.90;;;;;;;;;;5074254;28;20028;-86
2021/12/09 07:57:35;;;;;;;58.42;26.90;;;;;;;;;;5075161;28;20051;-85
2021/12/09 08:00:02;;;;;;;56.45;28.08;;;;;;;;;;5074810;28;20561;-85
2021/12/09 08:02:28;;;;;;;53.72;25.88;;;;;;;;;;5076473;28;20358;-85
2021/12/09 08:04:54;;;;;;;60.30;28.48;;;;;;;;;;5082529;28;20056;-85
2021/12/09 08:07:21;;;;;;;72.03;32.15;;;;;;;;;;5074852;28;20367;-85
2021/12/09 08:09:47;;;;;;;60.60;27.88;;;;;;;;;;5079906;28;20028;-85
2021/12/09 08:12:13;;;;;;;68.07;30.20;;;;;;;;;;5084198;28;20173;-85
2021/12/09 08:14:39;;;;;;;63.58;27.25;;;;;;;;;;5075871;28;20039;-85
2021/12/09 08:17:44;;;;;;;77.07;34.08;;;;;;;;;;5087053;28;20055;-84
2021/12/09 08:20:14;;;;;;;64.25;29.33;;;;;;;;;;5083747;28;20028;-85
2021/12/09 08:22:40;;;;;;;56.63;25.92;;;;;;;;;;5093888;28;20059;-85
2021/12/09 08:25:08;;;;;;;56.28;26.20;;;;;;;;;;5087005;28;20485;-85
2021/12/09 08:27:35;;;;;;;57.15;26.60;;;;;;;;;;5093826;28;20016;-85
2021/12/09 08:30:02;;;;;;;64.47;28.08;;;;;;;;;;5095754;28;20058;-85
2021/12/09 08:32:29;;;;;;;65.50;28.98;;;;;;;;;;5078302;28;20441;-86
2021/12/09 08:34:55;;;;;;;58.80;26.92;;;;;;;;;;5079602;28;20035;-86
2021/12/09 08:37:21;;;;;;;56.22;26.95;;;;;;;;;;5100360;28;20486;-86
2021/12/09 08:39:47;;;;;;;59.33;26.05;;;;;;;;;;5098662;28;20046;-86
2021/12/09 08:42:17;;;;;;;59.65;27.33;;;;;;;;;;5094662;28;20127;-85
2021/12/09 08:44:43;;;;;;;51.17;23.70;;;;;;;;;;5095690;28;20028;-86
2021/12/09 08:47:09;;;;;;;51.53;24.42;;;;;;;;;;5085888;28;20107;-85
2021/12/09 08:49:35;;;;;;;45.13;22.70;;;;;;;;;;5081695;28;20021;-85
2021/12/09 08:52:02;;;;;;;50.97;23.67;;;;;;;;;;5079773;28;20030;-84
2021/12/09 08:54:28;;;;;;;43.10;22.05;;;;;;;;;;5079137;28;20021;-85
2021/12/09 08:56:54;;;;;;;49.47;23.38;;;;;;;;;;5079389;28;20024;-85
2021/12/09 08:59:22;;;;;;;52.42;24.55;;;;;;;;;;5080554;28;20285;-84
2021/12/09 09:01:48;;;;;;;46.35;22.30;;;;;;;;;;5082192;28;20226;-84
2021/12/09 09:04:15;;;;;;;47.45;22.38;;;;;;;;;;5082029;28;20048;-84
2021/12/09 09:06:55;;;;;;;42.83;22.10;;;;;;;;;;5081056;28;20021;-84
2021/12/09 09:09:24;;;;;;;49.88;24.92;;;;;;;;;;5080221;28;20028;-84
2021/12/09 09:11:50;;;;;;;52.78;24.73;;;;;;;;;;5080490;28;20116;-84
2021/12/09 09:14:16;;;;;;;50.85;24.60;;;;;;;;;;5080504;28;20028;-85
2021/12/09 09:16:42;;;;;;;48.22;23.13;;;;;;;;;;5079669;28;20025;-83
2021/12/09 09:19:09;;;;;;;43.80;21.02;;;;;;;;;;5080898;28;20506;-85
2021/12/09 09:21:35;;;;;;;40.53;22.10;;;;;;;;;;5078628;28;20021;-83
2021/12/09 09:24:03;;;;;;;46.50;22.75;;;;;;;;;;5078727;28;20108;-83
2021/12/09 09:26:29;;;;;;;45.95;23.65;;;;;;;;;;5079237;28;20490;-82
2021/12/09 09:28:56;;;;;;;41.08;20.58;;;;;;;;;;5091018;28;20085;-85
2021/12/09 09:31:24;;;;;;;44.58;20.77;;;;;;;;;;5087765;28;20036;-83
2021/12/09 09:33:50;;;;;;;41.55;19.02;;;;;;;;;;5079485;28;20029;-82
2021/12/09 09:36:16;;;;;;;41.30;19.60;;;;;;;;;;5078893;28;20028;-86
2021/12/09 09:38:42;;;;;;;41.10;20.85;;;;;;;;;;5077246;28;20028;-83
2021/12/09 09:41:13;;;;;;;41.20;19.58;;;;;;;;;;5076970;28;20025;-83
2021/12/09 09:46:15;;;;;;;50.17;22.50;;;;;;;;;;5078456;28;20016;-83
2021/12/09 09:48:41;;;;;;;40.95;21.35;;;;;;;;;;5077720;28;20029;-83
2021/12/09 09:51:09;;;;;;;43.25;22.08;;;;;;;;;;5085567;28;20072;-83
2021/12/09 09:53:36;;;;;;;41.28;20.60;;;;;;;;;;5098015;28;20039;-84
2021/12/09 09:56:08;;;;;;;43.47;21.83;;;;;;;;;;5099350;28;20034;-84
2021/12/09 09:58:34;;;;;;;41.42;21.20;;;;;;;;;;5101238;28;20485;-85
2021/12/09 10:01:01;;;;;;;40.78;20.50;;;;;;;;;;5100538;28;20089;-85
2021/12/09 10:03:30;;;;;;;39.88;20.73;;;;;;;;;;5100594;28;20104;-84
2021/12/09 10:06:02;;;;;;;39.42;20.88;;;;;;;;;;5099231;28;20031;-84
2021/12/09 10:08:31;;;;;;;48.90;22.95;;;;;;;;;;5097631;28;20019;-85
2021/12/09 10:10:57;;;;;;;46.72;23.15;;;;;;;;;;5083200;28;20025;-83
2021/12/09 10:13:28;;;;;;;45.13;22.15;;;;;;;;;;5077409;28;20028;-86
2021/12/09 10:15:55;;;;;;;40.72;21.13;;;;;;;;;;5077060;28;20431;-83
2021/12/09 10:18:36;;;;;;;43.67;20.80;;;;;;;;;;5079002;28;20025;-84
2021/12/09 10:21:03;;;;;;;42.42;22.30;;;;;;;;;;5080258;28;20043;-84
2021/12/09 10:23:34;;;;;;;37.90;19.02;;;;;;;;;;5081192;28;20032;-85
2021/12/09 10:26:18;;;;;;;42.65;22.27;;;;;;;;;;5080298;28;20024;-83
2021/12/09 10:28:52;;;;;;;36.42;18.67;;;;;;;;;;5079791;28;20025;-85
2021/12/09 10:31:20;;;;;;;37.00;19.77;;;;;;;;;;5082314;28;20039;-84
2021/12/09 10:34:09;;;;;;;156.60;79.38;;;;;;;;;;5099521;28;20088;-85
2021/12/09 10:36:44;;;;;;;38.08;20.60;;;;;;;;;;5098186;28;20024;-85
2021/12/09 10:39:14;;;;;;;34.78;16.05;;;;;;;;;;5094240;28;20032;-85
2021/12/09 10:41:40;;;;;;;33.10;17.15;;;;;;;;;;5093878;28;20053;-84
2021/12/09 10:44:06;;;;;;;33.13;16.80;;;;;;;;;;5098867;28;20545;-84
2021/12/09 10:46:51;;;;;;;31.10;15.57;;;;;;;;;;5098045;28;20109;-83
2021/12/09 10:49:18;;;;;;;34.72;16.35;;;;;;;;;;5093819;28;20024;-83
2021/12/09 10:51:55;;;;;;;32.45;16.42;;;;;;;;;;5096660;28;20020;-83
2021/12/09 10:54:35;;;;;;;32.63;18.42;;;;;;;;;;5099609;28;20046;-82
2021/12/09 10:57:21;;;;;;;42.03;21.10;;;;;;;;;;5096063;28;20059;-82
2021/12/09 10:59:47;;;;;;;41.05;21.70;;;;;;;;;;5096495;28;20107;-85
2021/12/09 11:02:13;;;;;;;47.97;23.30;;;;;;;;;;5098967;28;20028;-83
2021/12/09 11:04:39;;;;;;;44.47;22.63;;;;;;;;;;5097138;28;20025;-83
2021/12/09 11:07:28;;;;;;;40.92;22.42;;;;;;;;;;5094650;28;20027;-82
2021/12/09 11:10:12;;;;;;;36.22;20.40;;;;;;;;;;5089326;28;20094;-83
2021/12/09 11:12:38;;;;;;;40.50;21.55;;;;;;;;;;5077857;28;20116;-82
2021/12/09 11:15:05;;;;;;;40.65;20.92;;;;;;;;;;5082634;28;20135;-83
2021/12/09 11:17:35;;;;;;;42.90;21.40;;;;;;;;;;5088143;28;20020;-83
2021/12/09 11:20:03;;;;;;;51.20;24.13;;;;;;;;;;5076127;28;20032;-82
2021/12/09 11:22:37;;;;;;;50.90;24.38;;;;;;;;;;5076990;28;20115;-82
2021/12/09 11:25:06;;;;;;;46.78;24.60;;;;;;;;;;5081904;28;20016;-83
2021/12/09 11:27:34;;;;;;;47.28;24.33;;;;;;;;;;5078354;28;20025;-83
2021/12/09 11:30:11;;;;;;;45.67;24.00;;;;;;;;;;5075462;28;20490;-82
2021/12/09 11:32:52;;;;;;;47.47;23.05;;;;;;;;;;5074697;28;20036;-83
2021/12/09 11:35:24;;;;;;;43.17;22.60;;;;;;;;;;5075555;28;20028;-82
2021/12/09 11:40:28;;;;;;;33.15;19.25;;;;;;;;;;5077961;28;20443;-84
2021/12/09 11:42:58;;;;;;;34.20;18.45;;;;;;;;;;5076798;28;20032;-84
2021/12/09 11:45:26;;;;;;;37.13;18.85;;;;;;;;;;5083831;28;20024;-84
2021/12/09 11:47:53;;;;;;;33.75;19.42;;;;;;;;;;5097243;28;20343;-83
2021/12/09 11:50:21;;;;;;;35.58;20.23;;;;;;;;;;5084454;28;20123;-84
2021/12/09 11:52:47;;;;;;;33.92;18.08;;;;;;;;;;5076020;28;20412;-83
2021/12/09 11:55:15;;;;;;;29.02;15.88;;;;;;;;;;5080420;28;20516;-83
2021/12/09 11:58:01;;;;;;;28.85;15.75;;;;;;;;;;5076012;28;20043;-84
2021/12/09 12:15:20;;;;;;;26.45;15.20;;;;;;;;;;5094266;28;20105;-83
2021/12/09 12:18:18;;;;;;;28.75;16.77;;;;;;;;;;5095234;28;20403;-84
2021/12/09 12:21:42;;;;;;;30.65;18.27;;;;;;;;;;5099213;28;20045;-83
2021/12/09 12:24:00;;;;;;;30.45;16.45;;;;;;;;;;5095617;28;20073;-83
2021/12/09 12:32:17;;;;;;;31.52;17.88;;;;;;;;;;5095723;28;19933;-83
2021/12/09 12:37:44;;;;;;;42.92;23.42;;;;;;;;;;5075493;28;20089;-84
2021/12/09 12:40:12;;;;;;;43.60;23.38;;;;;;;;;;5076871;28;20020;-83
2021/12/09 12:42:47;;;;;;;57.03;26.75;;;;;;;;;;5081561;28;20418;-84
2021/12/09 12:45:27;;;;;;;41.55;21.77;;;;;;;;;;5084180;28;20020;-84
2021/12/09 12:50:26;;;;;;;41.42;21.02;;;;;;;;;;5082740;28;20060;-85
2021/12/09 12:52:55;;;;;;;37.15;20.38;;;;;;;;;;5093610;28;20028;-84
2021/12/09 12:55:26;;;;;;;33.53;18.80;;;;;;;;;;5093230;28;20039;-84
2021/12/09 12:57:54;;;;;;;37.88;21.67;;;;;;;;;;5091511;28;20081;-83
2021/12/09 13:00:26;;;;;;;52.20;24.95;;;;;;;;;;5080256;28;20040;-84
2021/12/09 13:05:41;;;;;;;44.85;23.27;;;;;;;;;;5082464;28;20029;-84
2021/12/09 13:13:27;;;;;;;32.67;18.52;;;;;;;;;;5095732;28;20094;-83
2021/12/09 13:19:19;;;;;;;30.77;17.42;;;;;;;;;;5076662;28;20032;-83
2021/12/09 13:21:45;;;;;;;29.77;17.15;;;;;;;;;;5087112;28;20028;-83
2021/12/09 13:24:17;;;;;;;31.02;17.60;;;;;;;;;;5098267;28;20058;-82
2021/12/09 13:27:01;;;;;;;30.00;18.42;;;;;;;;;;5094694;28;20146;-82
2021/12/09 13:29:39;;;;;;;28.58;16.98;;;;;;;;;;5093894;28;20024;-82
2021/12/09 13:32:48;;;;;;;28.27;15.88;;;;;;;;;;5084491;28;20074;-82
2021/12/09 13:35:09;;;;;;;32.97;18.23;;;;;;;;;;5079213;28;20031;-82
2021/12/09 13:38:37;;;;;;;30.20;16.45;;;;;;;;;;5082626;28;20036;-83
2021/12/09 13:46:24;;;;;;;33.35;17.73;;;;;;;;;;5079439;28;20441;-82
2021/12/09 13:49:03;;;;;;;32.10;17.40;;;;;;;;;;5072727;28;20048;-82
2021/12/09 13:54:26;;;;;;;39.05;20.88;;;;;;;;;;5073035;28;20025;-84
2021/12/09 13:56:56;;;;;;;38.92;22.60;;;;;;;;;;5071087;28;20020;-84
2021/12/09 13:59:23;;;;;;;28.33;18.83;;;;;;;;;;5071351;28;20283;-83
2021/12/09 14:01:50;;;;;;;26.88;15.18;;;;;;;;;;5072763;28;20032;-83
2021/12/09 14:04:20;;;;;;;25.02;15.05;;;;;;;;;;5088939;28;20043;-83
2021/12/09 14:07:08;;;;;;;26.30;14.77;;;;;;;;;;5083126;28;20044;-83
2021/12/09 14:09:35;;;;;;;25.85;16.13;;;;;;;;;;5091194;28;20028;-83
2021/12/09 14:12:03;;;;;;;27.85;15.05;;;;;;;;;;5091229;28;20031;-83
2021/12/09 14:14:41;;;;;;;24.25;13.48;;;;;;;;;;5089204;28;20032;-83
2021/12/09 14:17:11;;;;;;;22.33;12.00;;;;;;;;;;5081172;28;20024;-82
2021/12/09 14:22:39;;;;;;;24.15;14.13;;;;;;;;;;5088747;28;20040;-82
2021/12/09 14:25:09;;;;;;;23.45;13.77;;;;;;;;;;5071082;28;20025;-83
2021/12/09 14:27:36;;;;;;;26.35;15.52;;;;;;;;;;5074274;28;20024;-83
2021/12/09 14:30:03;;;;;;;24.15;15.40;;;;;;;;;;5091014;28;20027;-83
2021/12/09 14:32:30;;;;;;;29.67;17.38;;;;;;;;;;5090907;28;20024;-83
2021/12/09 14:34:58;;;;;;;26.88;16.17;;;;;;;;;;5085745;28;20152;-84
2021/12/09 14:37:24;;;;;;;23.95;14.68;;;;;;;;;;5080429;28;20671;-84
2021/12/09 14:40:03;;;;;;;23.48;14.90;;;;;;;;;;5083492;28;20028;-83
2021/12/09 14:42:31;;;;;;;19.95;12.68;;;;;;;;;;5088706;28;20028;-84
2021/12/09 14:44:58;;;;;;;19.45;11.55;;;;;;;;;;5091284;28;20052;-85
2021/12/09 14:47:25;;;;;;;22.25;12.23;;;;;;;;;;5089156;28;20031;-84
2021/12/09 14:49:53;;;;;;;20.58;11.75;;;;;;;;;;5070772;28;20115;-84
2021/12/09 14:52:27;;;;;;;22.55;12.68;;;;;;;;;;5070195;28;20020;-84
2021/12/09 14:55:09;;;;;;;19.05;11.35;;;;;;;;;;5070023;28;20068;-84
2021/12/09 14:57:35;;;;;;;20.45;12.52;;;;;;;;;;5080063;28;20024;-85
2021/12/09 15:00:01;;;;;;;22.70;11.73;;;;;;;;;;5079879;28;20055;-84
2021/12/09 15:02:37;;;;;;;20.92;11.82;;;;;;;;;;5098658;28;20043;-86
2021/12/09 15:05:15;;;;;;;19.67;10.57;;;;;;;;;;5072461;28;20031;-88
2021/12/09 15:07:48;;;;;;;22.83;11.25;;;;;;;;;;5076911;28;20038;-87
2021/12/09 15:10:16;;;;;;;19.70;11.10;;;;;;;;;;5092436;28;20024;-84
2021/12/09 15:12:43;;;;;;;24.48;11.98;;;;;;;;;;5076280;28;20119;-85
2021/12/09 15:15:20;;;;;;;19.90;12.10;;;;;;;;;;5076304;28;22161;-86
2021/12/09 15:18:00;;;;;;;19.92;12.50;;;;;;;;;;5085752;28;20036;-86
2021/12/09 15:20:32;;;;;;;21.15;12.52;;;;;;;;;;5092932;28;20042;-85